createdAt,value
2023-03-29T00:01:42.417Z,0.80
2023-03-29T00:04:14.200Z,1.02
2023-03-29T00:06:45.439Z,1.10
2023-03-29T00:09:16.209Z,1.15
2023-03-29T00:11:46.077Z,0.85
2023-03-29T00:14:16.462Z,1.10
2023-03-29T00:16:46.907Z,0.82
2023-03-29T00:19:17.524Z,0.82
2023-03-29T00:21:47.121Z,1.07
2023-03-29T00:24:16.605Z,1.12
2023-03-29T00:26:46.092Z,1.10
2023-03-29T00:29:15.652Z,1.07
2023-03-29T00:31:47.092Z,1.30
2023-03-29T00:34:16.595Z,1.10
2023-03-29T00:36:46.132Z,0.93
2023-03-29T00:39:15.946Z,1.20
2023-03-29T00:41:52.572Z,0.98
2023-03-29T00:45:01.100Z,1.45
2023-03-29T00:47:39.729Z,1.20
2023-03-29T00:50:18.962Z,1.30
2023-03-29T00:52:51.557Z,1.35
2023-03-29T00:55:24.929Z,1.00
2023-03-29T00:57:56.844Z,1.15
2023-03-29T01:00:31.957Z,1.22
2023-03-29T01:03:04.992Z,1.15
2023-03-29T01:08:11.381Z,1.30
2023-03-29T01:10:46.831Z,1.25
2023-03-29T01:13:19.375Z,1.37
2023-03-29T01:15:49.108Z,1.25
2023-03-29T01:18:20.633Z,1.10
2023-03-29T01:20:54.378Z,1.40
2023-03-29T01:24:03.122Z,1.30
2023-03-29T01:26:57.046Z,1.20
2023-03-29T01:29:39.178Z,1.15
2023-03-29T01:32:14.642Z,1.45
2023-03-29T01:34:53.206Z,1.55
2023-03-29T01:37:31.432Z,1.47
2023-03-29T01:40:02.420Z,1.27
2023-03-29T01:42:50.399Z,1.40
2023-03-29T01:45:39.473Z,1.22
2023-03-29T01:48:30.743Z,1.57
2023-03-29T01:51:06.792Z,1.35
2023-03-29T01:53:48.652Z,1.65
2023-03-29T01:56:22.852Z,1.72
2023-03-29T01:58:56.289Z,1.30
2023-03-29T02:04:00.753Z,1.80
2023-03-29T02:06:33.309Z,1.75
2023-03-29T02:09:05.574Z,1.42
2023-03-29T02:11:37.273Z,1.75
2023-03-29T02:14:07.615Z,1.22
2023-03-29T02:16:39.192Z,1.57
2023-03-29T02:19:11.059Z,1.67
2023-03-29T02:21:48.457Z,1.42
2023-03-29T02:24:20.926Z,1.37
2023-03-29T02:26:51.539Z,1.47
2023-03-29T02:29:21.332Z,1.77
2023-03-29T02:32:06.121Z,1.30
2023-03-29T02:34:46.704Z,1.57
2023-03-29T02:37:19.334Z,1.55
2023-03-29T02:39:52.575Z,1.60
2023-03-29T02:42:25.653Z,1.20
2023-03-29T02:44:58.551Z,1.52
2023-03-29T02:47:32.125Z,1.87
2023-03-29T02:50:03.130Z,1.77
2023-03-29T02:52:40.331Z,1.42
2023-03-29T02:55:14.672Z,1.32
2023-03-29T02:57:44.326Z,1.90
2023-03-29T03:00:15.287Z,1.35
2023-03-29T03:02:44.777Z,1.47
2023-03-29T03:05:14.368Z,1.77
2023-03-29T03:07:44.611Z,1.90
2023-03-29T03:10:16.104Z,1.40
2023-03-29T03:12:45.634Z,1.85
2023-03-29T03:15:15.776Z,1.70
2023-03-29T03:17:46.766Z,1.32
2023-03-29T03:20:16.444Z,1.60
2023-03-29T03:22:50.666Z,1.75
2023-03-29T03:25:22.136Z,1.52
2023-03-29T03:27:52.012Z,1.98
2023-03-29T03:30:23.911Z,1.90
2023-03-29T03:33:07.979Z,1.87
2023-03-29T03:35:39.202Z,2.08
2023-03-29T03:38:10.902Z,1.90
2023-03-29T03:40:40.724Z,1.62
2023-03-29T03:43:11.017Z,1.82
2023-03-29T03:45:40.588Z,1.50
2023-03-29T03:48:11.815Z,1.70
2023-03-29T03:50:54.454Z,2.10
2023-03-29T03:53:26.060Z,1.77
2023-03-29T03:56:13.507Z,2.10
2023-03-29T03:58:46.161Z,1.95
2023-03-29T04:01:17.192Z,1.98
2023-03-29T04:03:49.118Z,1.90
2023-03-29T04:06:19.711Z,1.95
2023-03-29T04:09:06.543Z,2.02
2023-03-29T04:11:38.070Z,2.35
2023-03-29T04:14:07.969Z,2.10
2023-03-29T04:16:47.853Z,2.27
2023-03-29T04:19:19.608Z,1.80
2023-03-29T04:21:49.627Z,1.95
2023-03-29T04:24:20.125Z,2.05
2023-03-29T04:26:51.308Z,1.80
2023-03-29T04:29:22.527Z,1.98
2023-03-29T04:31:53.703Z,2.52
2023-03-29T04:34:33.626Z,1.67
2023-03-29T04:37:05.338Z,2.12
2023-03-29T04:39:34.969Z,1.62
2023-03-29T04:42:06.338Z,2.45
2023-03-29T04:44:36.948Z,2.10
2023-03-29T04:47:07.682Z,2.30
2023-03-29T04:49:48.172Z,2.10
2023-03-29T04:52:20.907Z,2.70
2023-03-29T04:54:51.268Z,4.00
2023-03-29T04:57:22.519Z,3.52
2023-03-29T05:00:00.328Z,3.17
2023-03-29T05:02:48.261Z,3.40
2023-03-29T05:05:18.178Z,3.52
2023-03-29T05:15:41.509Z,3.50
2023-03-29T05:18:11.361Z,3.45
2023-03-29T05:20:42.253Z,3.30
2023-03-29T05:23:13.470Z,3.87
2023-03-29T05:26:03.890Z,3.33
2023-03-29T05:28:33.864Z,3.85
2023-03-29T05:31:06.422Z,2.90
2023-03-29T05:33:37.819Z,3.22
2023-03-29T05:36:15.040Z,2.83
2023-03-29T05:38:50.069Z,3.33
2023-03-29T05:41:21.298Z,2.40
2023-03-29T05:44:09.039Z,3.27
2023-03-29T05:46:39.003Z,2.92
2023-03-29T05:49:08.734Z,3.10
2023-03-29T05:51:46.575Z,2.77
2023-03-29T05:54:17.470Z,3.25
2023-03-29T05:56:47.183Z,3.25
2023-03-29T05:59:18.188Z,2.65
2023-03-29T06:01:48.280Z,2.62
2023-03-29T06:04:19.537Z,2.90
2023-03-29T06:07:04.716Z,2.87
2023-03-29T06:09:34.897Z,2.65
2023-03-29T06:12:06.548Z,2.67
2023-03-29T06:14:43.425Z,3.10
2023-03-29T06:17:14.898Z,2.65
2023-03-29T06:19:44.503Z,3.45
2023-03-29T06:22:14.966Z,3.02
2023-03-29T06:24:44.969Z,3.80
2023-03-29T06:27:16.712Z,5.50
2023-03-29T06:29:48.416Z,4.45
2023-03-29T06:32:18.048Z,3.30
2023-03-29T06:34:56.244Z,3.02
2023-03-29T06:37:41.154Z,2.45
2023-03-29T06:40:24.931Z,3.10
2023-03-29T06:42:59.438Z,2.37
2023-03-29T06:45:33.485Z,2.42
2023-03-29T06:48:06.363Z,2.10
2023-03-29T06:50:37.001Z,1.97
2023-03-29T06:53:14.215Z,2.22
2023-03-29T06:55:46.334Z,2.55
2023-03-29T06:58:20.877Z,2.20
2023-03-29T07:00:51.525Z,2.60
2023-03-29T07:03:23.829Z,2.62
2023-03-29T07:05:58.641Z,2.10
2023-03-29T07:08:29.999Z,2.02
2023-03-29T07:11:01.668Z,2.22
2023-03-29T07:13:36.149Z,2.20
2023-03-29T07:16:08.111Z,2.02
2023-03-29T07:18:56.067Z,1.95
2023-03-29T07:21:37.895Z,2.02
2023-03-29T07:24:09.540Z,2.02
2023-03-29T07:26:46.329Z,2.45
2023-03-29T07:29:11.132Z,2.12
2023-03-29T07:31:43.109Z,2.17
2023-03-29T07:34:27.447Z,2.12
2023-03-29T07:36:58.052Z,2.13
2023-03-29T07:39:27.959Z,2.02
2023-03-29T07:42:11.479Z,2.17
2023-03-29T07:44:42.074Z,2.15
2023-03-29T07:47:12.889Z,2.12
2023-03-29T07:49:43.275Z,2.05
2023-03-29T07:52:12.890Z,1.80
2023-03-29T07:54:42.830Z,2.42
2023-03-29T07:57:15.251Z,1.87
2023-03-29T07:59:46.880Z,1.82
2023-03-29T08:02:18.413Z,2.10
2023-03-29T08:04:49.736Z,1.90
2023-03-29T08:07:21.475Z,2.20
2023-03-29T08:10:02.070Z,2.40
2023-03-29T08:12:33.672Z,2.27
2023-03-29T08:15:04.149Z,1.60
2023-03-29T08:17:37.420Z,2.20
2023-03-29T08:20:10.907Z,2.47
2023-03-29T08:22:42.139Z,2.25
2023-03-29T08:25:13.412Z,1.92
2023-03-29T08:27:45.172Z,2.12
2023-03-29T08:30:18.005Z,2.10
2023-03-29T08:32:50.859Z,1.85
2023-03-29T08:35:18.823Z,1.90
2023-03-29T08:37:50.044Z,2.45
2023-03-29T08:40:26.565Z,2.25
2023-03-29T08:43:21.789Z,1.80
2023-03-29T08:46:13.382Z,2.00
2023-03-29T08:48:58.890Z,2.10
2023-03-29T08:51:34.412Z,1.95
2023-03-29T08:54:13.520Z,1.82
2023-03-29T08:56:49.549Z,1.80
2023-03-29T08:59:33.823Z,1.72
2023-03-29T09:02:09.890Z,1.40
2023-03-29T09:04:42.823Z,1.90
2023-03-29T09:07:17.313Z,1.87
2023-03-29T09:09:51.828Z,1.57
2023-03-29T09:12:28.977Z,1.60
2023-03-29T09:15:18.762Z,1.72
2023-03-29T09:17:53.066Z,1.95
2023-03-29T09:20:35.335Z,1.70
2023-03-29T09:23:19.822Z,1.45
2023-03-29T09:26:00.002Z,2.00
2023-03-29T09:28:43.383Z,1.62
2023-03-29T09:31:24.970Z,1.60
2023-03-29T09:33:57.563Z,2.00
2023-03-29T09:36:52.714Z,4.20
2023-03-29T09:39:23.812Z,5.53
2023-03-29T09:42:04.376Z,1.87
2023-03-29T09:44:44.252Z,2.35
2023-03-29T09:47:30.303Z,2.52
2023-03-29T09:50:16.598Z,2.60
2023-03-29T09:52:40.890Z,1.80
2023-03-29T09:55:15.144Z,4.15
2023-03-29T09:57:47.430Z,2.60
2023-03-29T10:00:19.701Z,3.20
2023-03-29T10:02:54.378Z,1.60
2023-03-29T10:05:27.396Z,2.33
2023-03-29T10:08:00.410Z,1.85
2023-03-29T10:10:32.555Z,1.57
2023-03-29T10:13:08.312Z,1.80
2023-03-29T10:15:37.934Z,1.80
2023-03-29T10:18:11.452Z,2.05
2023-03-29T10:20:41.804Z,2.12
2023-03-29T10:23:17.764Z,1.80
2023-03-29T10:25:47.301Z,1.92
2023-03-29T10:28:21.672Z,2.00
2023-03-29T10:30:57.528Z,1.87
2023-03-29T10:33:30.261Z,2.00
2023-03-29T10:36:01.072Z,1.75
2023-03-29T10:38:32.379Z,1.80
2023-03-29T10:41:10.172Z,2.10
2023-03-29T10:43:49.541Z,1.80
2023-03-29T10:46:30.740Z,2.20
2023-03-29T10:49:07.623Z,1.92
2023-03-29T10:51:37.635Z,2.20
2023-03-29T10:54:10.020Z,1.85
2023-03-29T10:56:45.294Z,2.10
2023-03-29T10:59:30.071Z,1.80
2023-03-29T11:02:18.535Z,2.13
2023-03-29T11:05:26.838Z,2.30
2023-03-29T11:08:17.655Z,2.12
2023-03-29T11:11:05.384Z,2.20
2023-03-29T11:13:53.318Z,2.33
2023-03-29T11:16:32.252Z,2.00
2023-03-29T11:19:23.344Z,2.07
2023-03-29T11:21:59.159Z,2.33
2023-03-29T11:24:48.265Z,1.87
2023-03-29T11:27:40.438Z,2.05
2023-03-29T13:46:37.712Z,3.00
2023-03-29T13:49:25.392Z,2.20
2023-03-29T13:52:16.690Z,2.72
2023-03-29T13:55:01.841Z,3.47
2023-03-29T13:57:43.636Z,3.37
2023-03-29T14:00:20.490Z,2.70
2023-03-29T14:03:04.744Z,2.40
2023-03-29T14:05:37.410Z,2.52
2023-03-29T14:10:42.784Z,2.60
2023-03-29T14:13:20.744Z,2.58
2023-03-29T14:16:01.481Z,1.98
2023-03-29T14:18:44.789Z,2.45
2023-03-29T14:21:16.389Z,3.33
2023-03-29T14:23:48.458Z,3.25
2023-03-29T14:26:21.037Z,3.77
2023-03-29T14:28:54.013Z,3.22
2023-03-29T14:31:35.808Z,3.90
2023-03-29T14:34:09.418Z,3.37
2023-03-29T14:36:40.252Z,2.72
2023-03-29T14:39:22.865Z,2.98
2023-03-29T14:41:54.839Z,2.27
2023-03-29T14:44:33.455Z,2.77
2023-03-29T14:47:04.337Z,2.65
2023-03-29T14:53:13.210Z,2.80
2023-03-29T14:55:45.031Z,2.52
2023-03-29T14:58:23.906Z,2.90
2023-03-29T15:00:54.147Z,2.85
2023-03-29T15:03:26.693Z,2.35
2023-03-29T15:06:02.732Z,2.47
2023-03-29T15:08:36.269Z,2.80
2023-03-29T15:11:14.998Z,2.40
2023-03-29T15:18:14.880Z,2.83
2023-03-29T15:20:46.120Z,2.75
2023-03-29T15:23:21.850Z,2.75
2023-03-29T15:25:55.567Z,2.60
2023-03-29T15:28:28.356Z,2.65
2023-03-29T15:33:38.764Z,2.87
2023-03-29T15:36:11.566Z,3.12
2023-03-29T15:38:45.307Z,2.40
2023-03-29T15:41:15.651Z,2.65
2023-03-29T15:43:45.207Z,2.63
2023-03-29T15:46:16.680Z,2.85
2023-03-29T15:48:47.495Z,2.65
2023-03-29T15:51:17.160Z,2.45
2023-03-29T15:53:46.654Z,2.37
2023-03-29T15:56:20.432Z,3.17
2023-03-29T15:58:50.148Z,2.85
2023-03-29T16:01:35.520Z,2.27
2023-03-29T16:04:07.822Z,2.70
2023-03-29T16:06:59.451Z,3.20
2023-03-29T16:09:29.785Z,2.40
2023-03-29T16:12:02.597Z,2.85
2023-03-29T16:17:03.460Z,2.95
2023-03-29T16:19:34.257Z,2.58
2023-03-29T16:22:07.750Z,3.27
2023-03-29T16:24:37.837Z,3.37
2023-03-29T16:27:08.331Z,2.92
2023-03-29T16:29:37.803Z,2.52
2023-03-29T16:32:07.328Z,3.27
2023-03-29T16:34:38.900Z,3.00
2023-03-29T16:37:09.683Z,3.20
2023-03-29T16:39:39.867Z,2.80
2023-03-29T16:42:12.238Z,3.27
2023-03-29T16:44:41.931Z,2.80
2023-03-29T16:47:12.998Z,3.00
2023-03-29T16:49:44.385Z,3.05
2023-03-29T16:52:14.012Z,3.12
2023-03-29T16:54:43.528Z,3.40
2023-03-29T16:57:13.470Z,2.92
2023-03-29T16:59:45.124Z,3.53
2023-03-29T17:02:14.603Z,3.62
2023-03-29T17:04:44.161Z,2.80
2023-03-29T17:07:13.843Z,3.00
2023-03-29T17:09:43.783Z,3.80
2023-03-29T17:12:13.495Z,3.25
2023-03-29T17:14:43.125Z,3.40
2023-03-29T17:17:12.582Z,2.90
2023-03-29T17:19:42.438Z,3.62
2023-03-29T17:22:11.984Z,3.20
2023-03-29T17:24:41.548Z,3.12
2023-03-29T17:27:11.079Z,3.40
2023-03-29T17:29:41.143Z,2.93
2023-03-29T17:32:10.605Z,3.35
2023-03-29T17:34:40.098Z,3.05
2023-03-29T17:37:09.782Z,3.27
2023-03-29T17:39:44.159Z,3.30
2023-03-29T17:42:14.560Z,3.12
2023-03-29T17:44:44.040Z,3.37
2023-03-29T17:47:13.513Z,3.05
2023-03-29T17:49:43.502Z,3.17
2023-03-29T17:52:12.977Z,3.35
2023-03-29T17:54:42.464Z,3.70
2023-03-29T17:57:12.480Z,3.70
2023-03-29T17:59:42.290Z,4.42
2023-03-29T18:02:20.145Z,3.60
2023-03-29T18:04:50.818Z,3.87
2023-03-29T18:07:20.477Z,3.72
2023-03-29T18:09:51.990Z,3.90
2023-03-29T18:12:21.582Z,3.97
2023-03-29T18:14:51.331Z,4.33
2023-03-29T18:17:21.875Z,4.20
2023-03-29T18:19:51.790Z,4.22
2023-03-29T18:22:21.973Z,4.50
2023-03-29T18:24:52.083Z,4.47
2023-03-29T18:27:22.449Z,4.15
2023-03-29T18:29:54.141Z,4.08
2023-03-29T18:32:24.043Z,4.45
2023-03-29T18:34:53.512Z,4.85
2023-03-29T18:37:23.006Z,4.50
2023-03-29T18:39:52.849Z,4.28
2023-03-29T18:42:22.392Z,3.87
2023-03-29T18:44:52.330Z,4.33
2023-03-29T18:47:22.810Z,4.47
2023-03-29T18:49:52.363Z,5.10
2023-03-29T18:52:21.876Z,3.83
2023-03-29T18:54:51.715Z,4.50
2023-03-29T18:57:21.819Z,4.92
2023-03-29T18:59:51.349Z,4.17
2023-03-29T19:02:23.517Z,5.67
2023-03-29T19:04:53.040Z,4.75
2023-03-29T19:07:22.693Z,4.12
2023-03-29T19:09:52.320Z,4.53
2023-03-29T19:12:21.858Z,4.70
2023-03-29T19:14:51.343Z,4.55
2023-03-29T19:17:23.235Z,5.08
2023-03-29T19:19:52.801Z,5.27
2023-03-29T19:22:22.827Z,5.17
2023-03-29T19:24:52.304Z,5.05
2023-03-29T19:27:21.847Z,4.80
2023-03-29T19:29:51.574Z,4.87
2023-03-29T19:32:21.112Z,4.75
2023-03-29T19:34:50.852Z,5.60
2023-03-29T19:37:21.696Z,4.70
2023-03-29T19:39:51.751Z,4.85
2023-03-29T19:42:21.438Z,4.70
2023-03-29T19:44:51.070Z,5.30
2023-03-29T19:47:21.022Z,5.20
2023-03-29T19:49:50.541Z,5.37
2023-03-29T19:52:22.489Z,4.87
2023-03-29T19:54:52.179Z,5.70
2023-03-29T19:57:22.910Z,5.10
2023-03-29T19:59:54.522Z,5.30
2023-03-29T20:02:24.518Z,4.92
2023-03-29T20:04:55.103Z,4.90
2023-03-29T20:07:25.568Z,5.25
2023-03-29T20:09:55.989Z,5.17
2023-03-29T20:12:26.290Z,5.75
2023-03-29T20:14:55.968Z,5.08
2023-03-29T20:17:25.625Z,5.53
2023-03-29T20:19:56.279Z,5.00
2023-03-29T20:22:26.050Z,6.30
2023-03-29T20:24:56.314Z,6.15
2023-03-29T20:27:25.822Z,6.33
2023-03-29T20:29:56.065Z,5.75
2023-03-29T20:32:26.153Z,5.45
2023-03-29T20:34:55.922Z,5.58
2023-03-29T20:37:25.959Z,5.97
2023-03-29T20:39:57.139Z,6.10
2023-03-29T20:42:28.252Z,6.10
2023-03-29T20:44:57.734Z,5.70
2023-03-29T20:47:28.141Z,5.97
2023-03-29T20:49:58.906Z,6.15
2023-03-29T20:52:29.059Z,5.68
2023-03-29T20:54:59.441Z,5.87
2023-03-29T20:57:30.421Z,6.45
2023-03-29T21:00:00.187Z,6.65
2023-03-29T21:02:29.742Z,6.17
2023-03-29T21:05:00.564Z,6.53
2023-03-29T21:07:30.673Z,6.55
2023-03-29T21:10:01.453Z,6.53
2023-03-29T21:12:31.624Z,7.00
2023-03-29T21:15:02.922Z,7.00
2023-03-29T21:17:32.488Z,6.47
2023-03-29T21:20:05.056Z,6.83
2023-03-29T21:22:35.510Z,6.12
2023-03-29T21:25:05.323Z,6.42
2023-03-29T21:27:34.873Z,7.42
2023-03-29T21:30:07.684Z,7.80
2023-03-29T21:32:37.356Z,7.03
2023-03-29T21:35:07.635Z,7.35
2023-03-29T21:37:37.122Z,7.30
2023-03-29T21:40:09.937Z,6.95
2023-03-29T21:42:39.692Z,6.55
2023-03-29T21:45:11.211Z,7.45
2023-03-29T21:47:40.786Z,6.10
2023-03-29T21:50:12.130Z,7.00
2023-03-29T21:52:41.615Z,7.70
2023-03-29T21:55:12.793Z,7.10
2023-03-29T21:57:42.336Z,7.20
2023-03-29T22:00:13.643Z,7.33
2023-03-29T22:02:43.380Z,6.85
2023-03-29T22:05:13.434Z,7.25
2023-03-29T22:07:43.142Z,7.55
2023-03-29T22:10:14.533Z,7.40
2023-03-29T22:12:44.155Z,7.92
2023-03-29T22:15:14.221Z,8.28
2023-03-29T22:17:43.879Z,7.55
2023-03-29T22:20:14.331Z,8.18
2023-03-29T22:22:50.715Z,8.55
2023-03-29T22:25:21.382Z,8.63
2023-03-29T22:27:50.936Z,9.43
2023-03-29T22:30:20.480Z,9.53
2023-03-29T22:32:50.383Z,9.50
2023-03-29T22:35:19.985Z,10.15
2023-03-29T22:37:49.464Z,9.13
2023-03-29T22:40:19.542Z,9.73
2023-03-29T22:42:49.018Z,10.38
2023-03-29T22:45:19.009Z,10.03
2023-03-29T22:47:48.566Z,11.25
2023-03-29T22:50:18.247Z,10.17
2023-03-29T22:52:47.769Z,11.48
2023-03-29T22:55:18.336Z,10.55
2023-03-29T22:57:48.725Z,10.72
2023-03-29T23:00:18.825Z,10.72
2023-03-29T23:02:48.326Z,10.32
2023-03-29T23:05:18.416Z,10.60
2023-03-29T23:07:47.949Z,11.20
2023-03-29T23:10:17.680Z,11.40
2023-03-29T23:12:49.320Z,10.32
2023-03-29T23:15:20.626Z,11.30
2023-03-29T23:17:50.947Z,10.20
2023-03-29T23:20:21.467Z,10.82
2023-03-29T23:22:51.637Z,10.72
2023-03-29T23:25:21.195Z,11.08
2023-03-29T23:27:50.659Z,11.28
2023-03-29T23:30:22.253Z,11.93
2023-03-29T23:32:55.027Z,11.57
2023-03-29T23:35:24.666Z,10.80
2023-03-29T23:37:54.294Z,10.88
2023-03-29T23:40:24.986Z,11.53
2023-03-29T23:42:59.799Z,11.18
2023-03-29T23:45:29.527Z,11.12
2023-03-29T23:47:59.025Z,10.00
2023-03-29T23:50:29.161Z,10.45
2023-03-29T23:52:58.635Z,10.70
2023-03-29T23:55:28.233Z,11.33
2023-03-29T23:57:57.773Z,10.00
